Moscow Mills, MO (63362)

1:37 AM CDT on October 22, 2014 (GMT -0500)
Cuivre Valley | Change Station
CLOSE
Current Station
Personal Weather Station
Location: Troy, MO
Elevation: 610 ft
Nearby Weather Stations

Elev 610 ft 38.99 °N, 90.90 °W | Updated 4 seconds ago

Clear
Clear
46.0 °F
Feels Like 46 °F
N
2.0
Wind Variable Wind from East
Gusts 6.0 mph

Today
High -- | Low -- °F
--% Chance of Precip.
Yesterday
High -- | Low -- °F
Precip. -- in
7:20 AM 6:15 PM
Waning Crescent, 3% visible
Pressure 30.21 in
Visibility 10.0 miles
Clouds Clear
Windchill 46 °F
Dew Point 41 °F
Humidity 82%
Rainfall 0.00 in
Snow Depth Not available.
UV 0 out of 12
Pollen 2.50 out of 12
Air Quality Not available.
Flu Activity No Activity
METAR KSUS 220554Z 10003KT 10SM CLR 07/05 A3020 RMK AO2 SLP228 T00720050 10122 20061 402000044 51007

More Conditions Fewer Conditions

Pressure 30.21 in
Visibility 10.0 miles
Clouds Clear
Windchill 46 °F
Dew Point 41 °F
Humidity 82%
Rainfall 0.00 in
Snow Depth Not available.
UV 0 out of 12
Pollen 2.50 out of 12
Air Quality Not available.
Flu Activity No Activity
METAR KSUS 220554Z 10003KT 10SM CLR 07/05 A3020 RMK AO2 SLP228 T00720050 10122 20061 402000044 51007

More Conditions Fewer Conditions

10-Day Weather Forecast

Almanac

Astronomy

Oct. 22, 2014 Rise Set
Actual Time 7:20 AM CDT 6:15 PM CDT
Civil Twilight 6:52 AM CDT 6:42 PM CDT
Nautical Twilight 6:21 AM CDT 7:13 PM CDT
Astronomical Twilight 5:50 AM CDT 7:44 PM CDT
Moon 6:02 AM CDT 5:41 PM CDT
Length of Visible Light 11h 49m
Length of Day
10h 55m
Tomorrow will be 2m 22s shorter.
Waning Crescent, 3% of the Moon is Illuminated
Today
Waning Crescent
Oct 23
New
Oct 30
First Quarter
Nov 6
Full
Nov 14
Last Quarter

Today's Extremes

State Highs State Lows

Community

WunderPhotos

Upload Photos

1,763,884 photos uploaded!

Nearby

Snow Depth

Station Depth Elevation
No new snow has been reported.

Earthquake Activity

City Distance Mag. Time & Date
No recent earthquake activity has been reported nearby.
Minimum magnitude displayed is 2.5.

Coastal Water Temperatures

Place Temperature
No Stations Reporting

Nearby Weather Stations